Flight Track Log - Related Links

Times and Time Zones

All times are in EDT time to prevent confusion due to time zone crossing. See the AAL1459 flight status page for this flight to view local times or setup timezone preferences in your user account.

Time Position Orientation Groundspeed Altitude Reporting Facility
EDT Latitude Longitude Course Direction KTS MPH feet Rate Location/Type
Mon 02:18:17 PM 42.3500 -71.0167 304° West 174 200 700  Level KA90
Mon 02:18:56 PM 42.3333 -71.0000 144° Southeast 191 220 1,800 2,412 Climbing KA90
Mon 02:19:54 PM 42.3167 -70.9167 105° East 250 288 4,600 3,050 Climbing KA90
Mon 02:20:00 PM 42.5490 -70.8078 340° North  Level FlightAware Approximate
Mon 02:20:56 PM 42.3333 -70.8167 77° East 252 290 7,900  Level KA90
Mon 02:21:00 PM 42.6190 -70.9082 308° West  Level FlightAware Approximate
Mon 02:22:00 PM 42.6732 -71.0289 300° West  Level FlightAware Approximate
Mon 02:22:08 PM 42.3856 -70.7422 46° Northeast 372 428 11,000  Level Boston Center
Mon 02:23:00 PM 42.7257 -71.1513 304° West  Level FlightAware Approximate
Mon 02:23:08 PM 42.4625 -70.7347 North 309 356 13,400  Level Boston Center
Mon 02:24:08 PM 42.5428 -70.7944 331° Northwest 291 335 13,900 1,150 Climbing Boston Center
Mon 02:25:08 PM 42.6028 -70.9111 305° West 302 348 15,700 2,000 Climbing Boston Center
Mon 02:26:20 PM 42.6583 -71.0200 305° West 342 394 18,300 2,409 Climbing Boston Center
Mon 02:27:20 PM 42.7244 -71.1514 304° West 371 427 21,000 2,450 Climbing Boston Center
Mon 02:28:20 PM 42.7800 -71.2747 302° West 377 434 23,200 2,000 Climbing Boston Center
Mon 02:29:20 PM 42.8039 -71.3844 287° West 377 434 25,000 2,100 Climbing Boston Center
Mon 02:30:20 PM 42.8347 -71.5653 283° West 377 434 27,400 1,950 Climbing Boston Center
Mon 02:31:20 PM 42.8628 -71.7036 286° West 382 440 28,900 1,600 Climbing Boston Center
Mon 02:32:20 PM 42.8886 -71.8478 284° West 382 440 30,600 1,350 Climbing Boston Center
Mon 02:33:20 PM 42.9142 -71.9950 283° West 392 451 31,600 1,000 Climbing Boston Center
Mon 02:34:20 PM 42.9439 -72.1422 285° West 403 464 32,600 1,100 Climbing Boston Center
Mon 02:35:20 PM 42.9714 -72.2839 285° West 419 482 33,800 591 Climbing Boston Center
Mon 02:36:32 PM 43.0006 -72.4344 285° West 419 482 33,900 45 Climbing Boston Center
Mon 02:37:32 PM 43.0131 -72.6161 275° West 408 470 33,900 50 Level Boston Center
Mon 02:38:32 PM 43.0086 -72.7667 268° West 403 464 34,000 50 Climbing Boston Center
Mon 02:39:32 PM 43.0142 -72.9200 273° West 403 464 34,000  Level Boston Center
Mon 02:40:32 PM 43.0217 -73.0847 274° West 403 464 34,000  Level Boston Center
Mon 02:41:32 PM 43.0272 -73.2239 273° West 403 464 34,000  Level Boston Center
Mon 02:42:32 PM 43.0300 -73.3917 271° West 403 464 34,000 -50 Level Boston Center
Mon 02:43:32 PM 43.0350 -73.5450 273° West 403 464 33,900  Descending Boston Center
Mon 02:44:32 PM 43.0394 -73.6986 272° West 403 464 34,000 50 Climbing Boston Center
Mon 02:45:32 PM 43.0461 -73.8522 273° West 403 464 34,000  Level Boston Center
Mon 02:46:32 PM 43.0525 -74.0028 273° West 403 464 34,000  Level Boston Center
Mon 02:47:32 PM 43.0564 -74.1564 272° West 403 464 34,000  Level Boston Center
Mon 02:48:32 PM 43.0603 -74.3156 272° West 409 471 34,000  Level Boston Center
Mon 02:49:32 PM 43.0639 -74.4692 272° West 409 471 34,000  Level Boston Center
Mon 02:50:32 PM 43.0672 -74.6256 272° West 409 471 34,000  Level Boston Center
Mon 02:51:32 PM 43.0703 -74.7850 272° West 414 476 34,000 -50 Level Boston Center
Mon 02:52:32 PM 43.0753 -74.9444 273° West 420 483 33,900  Descending Boston Center
Mon 02:53:32 PM 43.0800 -75.1036 272° West 425 489 34,000 50 Climbing Boston Center
Mon 02:54:32 PM 43.0803 -75.2631 270° West 425 489 34,000  Level Boston Center
Mon 02:55:32 PM 43.0833 -75.3939 272° West 425 489 34,000  Level Boston Center
Mon 02:56:32 PM 43.0869 -75.5706 272° West 425 489 34,000 -50 Level Boston Center
Mon 02:57:32 PM 43.0906 -75.7356 272° West 425 489 33,900  Descending Boston Center
Mon 02:59:34 PM 43.0667 -76.0500 264° West 430 495 34,000  Climbing Toronto Center
Mon 02:59:57 PM 43.0933 -76.1275 295° West 428 493 33,900  Descending Cleveland Center
Mon 03:00:57 PM 43.0956 -76.2925 271° West 428 493 34,000  Climbing Cleveland Center
Mon 03:01:57 PM 43.0972 -76.4544 271° West 428 493 33,900  Descending Cleveland Center
Mon 03:02:57 PM 43.0989 -76.6164 271° West 428 493 34,000 50 Climbing Cleveland Center
Mon 03:03:57 PM 43.0986 -76.7956 270° West 428 493 34,000  Level Cleveland Center
Mon 03:04:57 PM 43.0994 -76.9550 270° West 428 493 34,000  Level Cleveland Center
Mon 03:05:57 PM 43.1003 -77.1197 270° West 428 493 34,000  Level Cleveland Center
Mon 03:06:57 PM 43.1008 -77.2819 270° West 428 493 34,000  Level Cleveland Center
Mon 03:07:57 PM 43.0992 -77.4442 269° West 428 493 34,000  Level Cleveland Center
Mon 03:08:57 PM 43.1011 -77.5919 271° West 434 499 34,000  Level Cleveland Center
Mon 03:09:57 PM 43.1008 -77.7539 270° West 434 499 34,000  Level Cleveland Center
Mon 03:10:57 PM 43.0986 -77.9189 269° West 434 499 34,000  Level Cleveland Center
Mon 03:11:57 PM 43.0981 -78.0839 270° West 439 505 34,000  Level Cleveland Center
Mon 03:12:57 PM 43.0972 -78.2461 270° West 439 505 34,000  Level Cleveland Center
Mon 03:13:57 PM 43.0964 -78.4139 270° West 444 511 34,000  Level Cleveland Center
Mon 03:14:57 PM 43.0953 -78.5789 270° West 444 511 34,000  Level Cleveland Center
Mon 03:15:57 PM 43.0936 -78.7408 269° West 439 505 34,000  Level Cleveland Center
Mon 03:16:57 PM 43.0900 -78.9058 268° West 439 505 34,000  Level Cleveland Center
Mon 03:17:34 PM 43.0833 -79.0167 265° West 440 506 34,000  Level Toronto Center
Mon 03:18:34 PM 43.0833 -79.1833 270° West 440 506 34,000  Level Toronto Center
Mon 03:19:34 PM 43.0667 -79.3333 261° West 440 506 34,000  Level Toronto Center
Mon 03:20:34 PM 43.0667 -79.5167 270° West 440 506 34,000  Level Toronto Center
Mon 03:21:34 PM 43.0667 -79.6833 270° West 430 495 34,000  Level Toronto Center
Mon 03:22:34 PM 43.0667 -79.8333 270° West 430 495 34,000  Level Toronto Center
Mon 03:23:34 PM 43.0667 -80.0000 270° West 430 495 34,000  Level Toronto Center
Mon 03:24:34 PM 43.0500 -80.1500 261° West 430 495 34,000  Level Toronto Center
Mon 03:25:34 PM 43.0500 -80.3167 270° West 430 495 34,000  Level Toronto Center
Mon 03:26:34 PM 43.0500 -80.4833 270° West 440 506 34,000  Level Toronto Center
Mon 03:27:34 PM 43.0500 -80.6667 270° West 440 506 34,000  Level Toronto Center
Mon 03:28:34 PM 43.0333 -80.8167 261° West 440 506 34,000  Level Toronto Center
Mon 03:29:34 PM 43.0167 -81.0000 263° West 440 506 34,000  Level Toronto Center
Mon 03:30:34 PM 43.0167 -81.1667 270° West 430 495 34,000  Level Toronto Center
Mon 03:31:34 PM 43.0167 -81.3167 270° West 430 495 34,000  Level Toronto Center
Mon 03:32:34 PM 43.0167 -81.4833 270° West 430 495 34,000  Level Toronto Center
Mon 03:33:34 PM 43.0167 -81.6333 270° West 420 483 34,000  Level Toronto Center
Mon 03:34:34 PM 43.0167 -81.8000 270° West 420 483 34,000  Level Toronto Center
Mon 03:35:34 PM 43.0000 -81.9667 262° West 420 483 34,000  Level Toronto Center
Mon 03:36:34 PM 43.0000 -82.1167 270° West 420 483 34,000  Level Toronto Center
Mon 03:37:34 PM 43.0000 -82.2833 270° West 420 483 34,000  Level Toronto Center
Mon 03:38:34 PM 43.0000 -82.4333 270° West 420 483 34,000  Level Toronto Center
Mon 03:39:34 PM 43.0000 -82.6000 270° West 420 483 34,000  Level Toronto Center
Mon 03:40:34 PM 42.9833 -82.7500 261° West 410 472 34,000  Level Toronto Center
Mon 03:41:34 PM 42.9833 -82.9167 270° West 410 472 34,000  Level Toronto Center
Mon 03:42:34 PM 42.9833 -83.0667 270° West 410 472 34,000 -550 Level Toronto Center
Mon 03:43:34 PM 42.9667 -83.2333 262° West 410 472 32,900 -1,000 Descending Toronto Center
Mon 03:44:34 PM 42.9667 -83.4000 270° West 420 483 32,000 -450 Descending Toronto Center
Mon 03:45:34 PM 42.9667 -83.5500 270° West 420 483 32,000  Level Toronto Center
Mon 03:46:34 PM 42.9667 -83.6833 270° West 410 472 32,000  Level Toronto Center
Mon 03:47:34 PM 42.9333 -83.8667 256° West 420 483 32,000  Level Toronto Center
Mon 03:48:34 PM 42.9333 -84.0000 270° West 420 483 32,000  Level Toronto Center
Mon 03:49:34 PM 42.9000 -84.1667 255° West 420 483 32,000  Level Toronto Center
Mon 03:50:07 PM 42.9164 -84.2617 283° West 415 478 32,000  Level Chicago Center
Mon 03:50:45 PM 42.9047 -84.3617 261° West 423 487 32,000  Level Cleveland Center
Mon 03:51:09 PM 42.9006 -84.4192 264° West 420 483 32,000  Level Chicago Center
Mon 03:52:11 PM 42.8844 -84.5756 262° West 419 482 32,000  Level Chicago Center
Mon 03:53:13 PM 42.8686 -84.7331 262° West 421 484 32,000  Level Chicago Center
Mon 03:54:15 PM 42.8517 -84.8917 262° West 422 486 32,000  Level Chicago Center
Mon 03:55:17 PM 42.8347 -85.0511 262° West 426 490 32,000  Level Chicago Center
Mon 03:56:19 PM 42.8144 -85.2419 262° West 427 491 32,000  Level Chicago Center
Mon 03:57:21 PM 42.7969 -85.4022 262° West 427 491 32,000 -242 Level Chicago Center
Mon 03:58:23 PM 42.7758 -85.5611 260° West 427 491 31,500 -1,403 Descending Chicago Center
Mon 03:59:25 PM 42.7464 -85.7203 256° West 430 495 29,100 -2,592 Descending Chicago Center
Mon 04:00:28 PM 42.7175 -85.8800 256° West 432 497 26,100 -2,524 Descending Chicago Center
Mon 04:01:31 PM 42.6889 -86.0350 256° West 423 487 23,800 -2,256 Descending Chicago Center
Mon 04:02:33 PM 42.6625 -86.1836 256° West 407 468 21,400 -1,839 Descending Chicago Center
Mon 04:03:35 PM 42.6300 -86.3525 255° West 387 445 20,000 -919 Descending Chicago Center
Mon 04:04:37 PM 42.6022 -86.4925 255° West 384 442 19,500 -919 Descending Chicago Center
Mon 04:05:39 PM 42.5772 -86.6319 256° West 379 436 18,100 -1,452 Descending Chicago Center
Mon 04:06:41 PM 42.5514 -86.7703 256° West 369 425 16,500 -1,452 Descending Chicago Center
Mon 04:07:43 PM 42.5161 -86.8958 249° West 370 426 15,100 -1,403 Descending Chicago Center
Mon 04:08:45 PM 42.4808 -87.0228 249° West 362 417 13,600 -1,597 Descending Chicago Center
Mon 04:09:47 PM 42.4369 -87.1722 248° West 353 406 11,800 -1,548 Descending Chicago Center
Mon 04:10:49 PM 42.4053 -87.2892 250° West 344 396 10,400 -871 Descending Chicago Center
Mon 04:11:51 PM 42.3714 -87.4139 250° West 350 403 10,000 -194 Descending Chicago Center
Mon 04:12:53 PM 42.3369 -87.5350 249° West 349 402 10,000  Level Chicago Center
Mon 04:13:56 PM 42.2558 -87.6203 218° Southwest 370 426 10,000  Level Chicago Center
Mon 04:14:58 PM 42.1603 -87.7228 219° Southwest 365 420 10,000 -63 Level Chicago Center
Mon 04:15:32 PM 42.1167 -87.7667 217° Southwest 307 353 9,900 -957 Descending Chicago TRACON
Mon 04:16:32 PM 42.0833 -87.8667 246° West 271 312 8,500 -1,100 Descending Chicago TRACON
Mon 04:17:32 PM 42.0500 -87.9500 242° Southwest 249 287 7,700 -893 Descending Chicago TRACON
Mon 04:18:33 PM 42.0333 -88.0167 251° West 207 238 6,700 -1,289 Descending Chicago TRACON
Mon 04:19:33 PM 42.0500 -88.1000 285° West 209 241 5,100 -1,389 Descending Chicago TRACON
Mon 04:20:08 PM 42.0461 -88.1403 263° West 209 241 4,500 -680 Descending Chicago Center
Mon 04:21:10 PM 42.0103 -88.1733 214° Southwest 206 237 4,000 -387 Descending Chicago Center
Mon 04:22:12 PM 41.9667 -88.1461 155° Southeast 202 232 3,700 -506 Descending Chicago Center
Mon 04:22:33 PM 41.9667 -88.1167 90° East 198 228 3,300 -963 Descending Chicago TRACON
Mon 04:23:33 PM 41.9667 -88.0500 90° East 186 214 2,400 -900 Descending Chicago TRACON
Mon 04:24:33 PM 41.9667 -87.9833 90° East 160 184 1,500 -900 Descending Chicago TRACON

Login

Don't have an account? Register now (free) for customized features, flight alerts, and more!